createdAt,value
2022-10-19T00:00:23.422Z,51.95
2022-10-19T00:01:23.494Z,51.89
2022-10-19T00:02:23.667Z,51.89
2022-10-19T00:03:23.671Z,51.87
2022-10-19T00:04:23.758Z,51.89
2022-10-19T00:05:23.839Z,51.85
2022-10-19T00:06:23.921Z,51.85
2022-10-19T00:07:24.003Z,51.89
2022-10-19T00:08:24.096Z,51.79
2022-10-19T00:09:24.157Z,51.73
2022-10-19T00:10:24.219Z,51.75
2022-10-19T00:11:24.310Z,51.70
2022-10-19T00:12:24.388Z,51.77
2022-10-19T00:13:24.465Z,51.79
2022-10-19T00:14:24.548Z,51.76
2022-10-19T00:15:24.623Z,51.79
2022-10-19T00:16:24.714Z,51.82
2022-10-19T00:17:24.826Z,51.88
2022-10-19T00:18:24.886Z,51.95
2022-10-19T00:19:24.978Z,51.85
2022-10-19T00:20:25.057Z,51.83
2022-10-19T00:21:25.135Z,52.01
2022-10-19T00:22:25.231Z,52.04
2022-10-19T00:23:25.315Z,52.00
2022-10-19T00:24:25.382Z,51.92
2022-10-19T00:25:25.488Z,51.91
2022-10-19T00:26:25.567Z,51.97
2022-10-19T00:27:25.664Z,51.97
2022-10-19T00:28:25.769Z,51.90
2022-10-19T00:29:25.790Z,51.94
2022-10-19T00:30:25.877Z,52.00
2022-10-19T00:31:25.940Z,51.99
2022-10-19T00:32:26.050Z,52.02
2022-10-19T00:33:26.100Z,52.02
2022-10-19T00:34:26.187Z,51.99
2022-10-19T00:35:26.279Z,52.03
2022-10-19T00:36:26.359Z,52.02
2022-10-19T00:37:26.519Z,52.05
2022-10-19T00:38:26.511Z,52.02
2022-10-19T00:39:26.586Z,52.09
2022-10-19T00:40:26.675Z,52.09
2022-10-19T00:41:26.776Z,51.97
2022-10-19T00:42:26.847Z,52.00
2022-10-19T00:43:26.897Z,52.05
2022-10-19T00:44:26.973Z,52.07
2022-10-19T00:45:27.058Z,52.03
2022-10-19T00:46:27.161Z,52.06
2022-10-19T00:47:27.232Z,52.07
2022-10-19T00:48:27.350Z,52.10
2022-10-19T00:49:27.372Z,52.09
2022-10-19T00:50:27.453Z,52.15
2022-10-19T00:51:27.550Z,52.14
2022-10-19T00:52:27.632Z,52.12
2022-10-19T00:53:27.679Z,52.14
2022-10-19T00:54:27.758Z,52.16
2022-10-19T00:55:27.841Z,52.06
2022-10-19T00:56:27.928Z,52.12
2022-10-19T00:57:28.016Z,52.12
2022-10-19T00:58:28.111Z,52.12
2022-10-19T00:59:28.165Z,52.11
2022-10-19T01:00:28.236Z,52.06
2022-10-19T01:01:28.383Z,52.13
2022-10-19T01:02:28.414Z,52.13
2022-10-19T01:03:28.470Z,52.06
2022-10-19T01:04:28.541Z,52.07
2022-10-19T01:05:28.604Z,52.08
2022-10-19T01:06:28.706Z,52.03
2022-10-19T01:07:28.750Z,52.07
2022-10-19T01:08:28.827Z,51.99
2022-10-19T01:09:28.910Z,52.02
2022-10-19T01:10:29.016Z,52.05
2022-10-19T01:11:29.094Z,52.06
2022-10-19T01:12:29.182Z,52.04
2022-10-19T01:13:29.245Z,52.08
2022-10-19T01:14:29.320Z,51.98
2022-10-19T01:15:29.412Z,52.06
2022-10-19T01:16:29.521Z,52.06
2022-10-19T01:17:29.565Z,52.01
2022-10-19T01:18:29.656Z,52.02
2022-10-19T01:19:29.752Z,52.00
2022-10-19T01:20:29.828Z,52.02
2022-10-19T01:21:29.920Z,52.02
2022-10-19T01:22:30.003Z,52.04
2022-10-19T01:23:30.114Z,52.02
2022-10-19T01:24:30.148Z,52.00
2022-10-19T01:25:30.229Z,51.98
2022-10-19T01:26:30.323Z,52.02
2022-10-19T01:27:30.488Z,52.00
2022-10-19T01:28:30.562Z,52.01
2022-10-19T01:29:30.531Z,52.00
2022-10-19T01:30:30.609Z,52.02
2022-10-19T01:31:30.696Z,52.02
2022-10-19T01:32:30.787Z,52.01
2022-10-19T01:33:30.864Z,52.00
2022-10-19T01:34:30.943Z,52.02
2022-10-19T01:35:31.028Z,52.00
2022-10-19T01:36:31.126Z,52.01
2022-10-19T01:37:31.276Z,52.02
2022-10-19T01:38:31.245Z,52.00
2022-10-19T01:39:31.327Z,52.00
2022-10-19T01:40:31.438Z,52.00
2022-10-19T01:41:31.489Z,52.00
2022-10-19T01:42:31.580Z,52.01
2022-10-19T01:43:31.642Z,51.99
2022-10-19T01:44:31.714Z,51.99
2022-10-19T01:45:31.804Z,51.98
2022-10-19T01:46:31.904Z,51.94
2022-10-19T01:47:32.182Z,51.97
2022-10-19T01:48:32.076Z,51.95
2022-10-19T01:49:32.103Z,51.95
2022-10-19T01:50:32.176Z,51.94
2022-10-19T01:51:32.274Z,51.94
2022-10-19T01:52:32.621Z,51.93
2022-10-19T01:53:32.438Z,51.94
2022-10-19T01:54:32.506Z,51.95
2022-10-19T01:55:32.588Z,51.91
2022-10-19T01:56:32.694Z,51.92
2022-10-19T01:57:32.743Z,51.91
2022-10-19T01:58:32.820Z,51.93
2022-10-19T01:59:32.894Z,51.90
2022-10-19T02:00:32.989Z,51.91
2022-10-19T02:01:33.072Z,51.88
2022-10-19T02:02:33.489Z,51.89
2022-10-19T02:03:33.228Z,51.90
2022-10-19T02:04:33.305Z,51.93
2022-10-19T02:05:33.383Z,51.90
2022-10-19T02:06:33.476Z,51.90
2022-10-19T02:07:33.554Z,51.91
2022-10-19T02:08:33.627Z,51.91
2022-10-19T02:09:33.713Z,51.80
2022-10-19T02:10:33.809Z,51.88
2022-10-19T02:11:33.890Z,51.83
2022-10-19T02:12:34.263Z,51.81
2022-10-19T02:13:34.034Z,51.87
2022-10-19T02:14:34.109Z,51.87
2022-10-19T02:15:34.190Z,51.90
2022-10-19T02:16:34.273Z,51.85
2022-10-19T02:17:34.355Z,51.89
2022-10-19T02:18:34.424Z,51.81
2022-10-19T02:19:34.496Z,51.85
2022-10-19T02:20:34.597Z,51.85
2022-10-19T02:21:34.650Z,51.87
2022-10-19T02:22:35.012Z,51.81
2022-10-19T02:23:34.834Z,51.84
2022-10-19T02:24:34.921Z,51.75
2022-10-19T02:25:35.004Z,51.78
2022-10-19T02:26:35.091Z,51.77
2022-10-19T02:27:35.164Z,51.78
2022-10-19T02:28:35.259Z,51.78
2022-10-19T02:29:35.329Z,51.73
2022-10-19T02:30:35.440Z,51.75
2022-10-19T02:31:35.485Z,51.73
2022-10-19T02:32:35.913Z,51.75
2022-10-19T02:33:35.636Z,51.71
2022-10-19T02:34:35.719Z,51.72
2022-10-19T02:35:35.800Z,51.73
2022-10-19T02:36:35.874Z,51.71
2022-10-19T02:38:36.061Z,51.67
2022-10-19T02:39:36.136Z,51.65
2022-10-19T02:40:36.229Z,51.69
2022-10-19T02:41:36.313Z,51.69
2022-10-19T02:42:36.802Z,51.67
2022-10-19T02:43:36.475Z,51.69
2022-10-19T02:44:36.543Z,51.67
2022-10-19T02:45:36.645Z,51.66
2022-10-19T02:46:36.722Z,51.66
2022-10-19T02:47:36.947Z,51.61
2022-10-19T02:48:36.845Z,51.64
2022-10-19T02:49:36.938Z,51.64
2022-10-19T02:50:37.015Z,51.64
2022-10-19T02:51:37.099Z,51.63
2022-10-19T02:52:37.188Z,51.64
2022-10-19T02:53:37.272Z,51.62
2022-10-19T02:54:37.324Z,51.64
2022-10-19T02:55:37.491Z,51.62
2022-10-19T02:56:37.498Z,51.61
2022-10-19T02:57:37.746Z,51.62
2022-10-19T02:58:37.637Z,51.60
2022-10-19T02:59:37.737Z,51.58
2022-10-19T03:00:37.933Z,51.62
2022-10-19T03:01:37.912Z,51.58
2022-10-19T03:02:37.971Z,51.59
2022-10-19T03:03:38.071Z,51.58
2022-10-19T03:04:38.227Z,51.59
2022-10-19T03:05:38.248Z,51.56
2022-10-19T03:06:38.289Z,51.59
2022-10-19T03:07:38.397Z,51.57
2022-10-19T03:08:38.460Z,51.58
2022-10-19T03:09:38.537Z,51.56
2022-10-19T03:10:38.626Z,51.54
2022-10-19T03:11:38.701Z,51.55
2022-10-19T03:12:38.762Z,51.55
2022-10-19T03:13:38.915Z,51.55
2022-10-19T03:14:38.917Z,51.55
2022-10-19T03:15:39.025Z,51.53
2022-10-19T03:16:39.081Z,51.54
2022-10-19T03:17:39.195Z,51.53
2022-10-19T03:18:39.244Z,51.53
2022-10-19T03:19:39.320Z,51.52
2022-10-19T03:20:39.417Z,51.52
2022-10-19T03:21:39.481Z,51.50
2022-10-19T03:22:39.577Z,51.50
2022-10-19T03:23:39.669Z,51.49
2022-10-19T03:24:39.739Z,51.51
2022-10-19T03:25:39.812Z,51.48
2022-10-19T03:26:39.856Z,51.49
2022-10-19T03:27:39.960Z,51.47
2022-10-19T03:28:40.102Z,51.47
2022-10-19T03:29:40.125Z,51.45
2022-10-19T03:30:40.181Z,51.47
2022-10-19T03:31:40.241Z,51.45
2022-10-19T03:32:40.328Z,51.44
2022-10-19T03:33:40.426Z,51.46
2022-10-19T03:34:40.518Z,51.45
2022-10-19T03:35:40.607Z,51.44
2022-10-19T03:36:40.650Z,51.45
2022-10-19T03:37:40.745Z,51.46
2022-10-19T03:38:40.817Z,51.45
2022-10-19T03:39:40.883Z,51.44
2022-10-19T03:40:40.975Z,51.44
2022-10-19T03:41:41.077Z,51.41
2022-10-19T03:42:41.126Z,51.41
2022-10-19T03:43:41.218Z,51.41
2022-10-19T03:44:41.298Z,51.41
2022-10-19T03:45:41.381Z,51.38
2022-10-19T03:46:41.468Z,51.41
2022-10-19T03:47:41.546Z,51.43
2022-10-19T03:48:41.598Z,51.39
2022-10-19T03:49:41.684Z,51.40
2022-10-19T03:50:41.803Z,51.39
2022-10-19T03:51:41.827Z,51.39
2022-10-19T03:52:41.910Z,51.39
2022-10-19T03:53:41.986Z,51.39
2022-10-19T03:54:42.059Z,51.39
2022-10-19T03:55:42.172Z,51.38
2022-10-19T03:56:42.208Z,51.38
2022-10-19T03:57:42.287Z,51.36
2022-10-19T03:58:42.376Z,51.38
2022-10-19T03:59:42.453Z,51.39
2022-10-19T04:00:42.547Z,51.38
2022-10-19T04:01:42.609Z,51.41
2022-10-19T04:02:42.667Z,51.42
2022-10-19T04:03:42.761Z,51.44
2022-10-19T04:04:42.826Z,51.47
2022-10-19T04:05:42.923Z,51.46
2022-10-19T04:06:42.990Z,51.46
2022-10-19T04:07:43.087Z,51.46
2022-10-19T04:08:43.149Z,51.52
2022-10-19T04:09:43.238Z,51.51
2022-10-19T04:10:43.326Z,51.53
2022-10-19T04:11:43.404Z,51.52
2022-10-19T04:12:43.490Z,51.50
2022-10-19T04:13:43.585Z,51.52
2022-10-19T04:14:56.888Z,51.54
2022-10-19T04:15:43.760Z,51.56
2022-10-19T04:16:43.831Z,51.61
2022-10-19T04:17:45.666Z,51.61
2022-10-19T04:18:43.987Z,51.64
2022-10-19T04:19:44.078Z,51.68
2022-10-19T04:20:44.154Z,51.71
2022-10-19T04:21:44.235Z,51.73
2022-10-19T04:22:44.331Z,51.74
2022-10-19T04:23:44.408Z,51.74
2022-10-19T04:24:44.529Z,51.77
2022-10-19T04:25:44.566Z,51.79
2022-10-19T04:26:44.651Z,51.83
2022-10-19T04:27:44.725Z,51.85
2022-10-19T04:28:44.857Z,51.91
2022-10-19T04:29:44.888Z,51.96
2022-10-19T04:30:44.987Z,51.98
2022-10-19T04:31:45.054Z,52.00
2022-10-19T04:32:45.121Z,52.02
2022-10-19T04:34:45.275Z,52.04
2022-10-19T04:35:45.427Z,52.06
2022-10-19T04:36:45.450Z,52.08
2022-10-19T04:37:45.515Z,52.12
2022-10-19T04:38:45.596Z,52.14
2022-10-19T04:39:45.686Z,52.14
2022-10-19T04:40:45.788Z,52.14
2022-10-19T04:41:45.844Z,52.14
2022-10-19T04:42:45.909Z,52.15
2022-10-19T04:43:46.015Z,52.15
2022-10-19T04:44:46.098Z,52.19
2022-10-19T04:45:46.161Z,52.24
2022-10-19T04:46:46.220Z,52.27
2022-10-19T04:47:46.290Z,52.28
2022-10-19T04:48:46.383Z,52.33
2022-10-19T04:49:46.490Z,52.38
2022-10-19T04:50:46.531Z,52.40
2022-10-19T04:51:46.622Z,52.53
2022-10-19T04:52:46.669Z,52.53
2022-10-19T04:53:46.750Z,52.59
2022-10-19T04:54:46.860Z,52.59
2022-10-19T04:55:46.896Z,52.59
2022-10-19T04:56:46.970Z,52.62
2022-10-19T04:57:47.048Z,52.62
2022-10-19T04:58:47.134Z,52.64
2022-10-19T04:59:47.223Z,53.00
2022-10-19T11:31:33.889Z,51.80
2022-10-19T11:32:35.265Z,52.22
2022-10-19T11:33:35.055Z,52.00
2022-10-19T11:34:35.098Z,51.73
2022-10-19T11:35:35.193Z,51.75
2022-10-19T11:37:23.339Z,50.89
2022-10-19T11:38:29.554Z,51.01
2022-10-19T11:39:24.500Z,51.02
2022-10-19T11:40:24.622Z,51.03
2022-10-19T11:41:24.675Z,50.81
2022-10-19T11:42:24.767Z,50.92
2022-10-19T11:43:26.995Z,50.80
2022-10-19T11:44:24.915Z,50.65
2022-10-19T11:45:25.016Z,50.56
2022-10-19T11:46:25.094Z,50.79
2022-10-19T11:47:25.177Z,50.88
2022-10-19T11:48:25.417Z,50.77
2022-10-19T11:49:25.351Z,50.76
2022-10-19T11:50:27.180Z,50.43
2022-10-19T11:51:25.510Z,50.28
2022-10-19T11:52:25.590Z,50.31
2022-10-19T11:53:25.688Z,50.23
2022-10-19T11:54:25.756Z,50.13
2022-10-19T11:55:25.843Z,50.06
2022-10-19T11:56:38.888Z,49.96
2022-10-19T11:57:26.026Z,49.94
2022-10-19T11:58:28.912Z,50.00
2022-10-19T11:59:26.269Z,49.92
2022-10-19T12:00:38.817Z,49.88
2022-10-19T12:01:26.331Z,49.87
2022-10-19T12:02:26.488Z,49.87
2022-10-19T12:03:26.460Z,49.98
2022-10-19T12:04:26.647Z,50.11
2022-10-19T12:05:26.639Z,50.06
2022-10-19T12:06:26.708Z,49.94
2022-10-19T12:07:26.795Z,50.08
2022-10-19T12:08:32.886Z,50.05
2022-10-19T12:09:26.953Z,49.96
2022-10-19T12:10:27.055Z,49.84
2022-10-19T12:11:27.111Z,49.87
2022-10-19T12:12:27.184Z,49.98
2022-10-19T12:13:27.265Z,49.96
2022-10-19T12:14:27.359Z,50.23
2022-10-19T12:15:27.439Z,50.32
2022-10-19T12:16:27.533Z,50.21
2022-10-19T12:17:27.622Z,50.24
2022-10-19T12:18:27.687Z,50.12
2022-10-19T12:19:27.757Z,50.20
2022-10-19T12:20:27.841Z,50.13
2022-10-19T12:21:27.922Z,50.01
2022-10-19T12:22:28.054Z,50.01
2022-10-19T12:23:28.096Z,49.95
2022-10-19T12:24:28.178Z,49.92
2022-10-19T12:25:28.261Z,49.92
2022-10-19T12:26:28.363Z,49.86
2022-10-19T12:27:28.417Z,49.83
2022-10-19T12:28:28.613Z,49.82
2022-10-19T12:29:28.587Z,49.87
2022-10-19T12:30:28.669Z,49.92
2022-10-19T12:31:28.741Z,49.92
2022-10-19T12:32:28.817Z,49.91
2022-10-19T12:33:28.903Z,49.95
2022-10-19T12:34:29.095Z,49.96
2022-10-19T12:35:29.076Z,49.97
2022-10-19T12:36:29.142Z,49.96
2022-10-19T12:37:29.211Z,49.96
2022-10-19T12:38:29.367Z,49.89
2022-10-19T12:39:35.556Z,49.90
2022-10-19T12:40:29.488Z,49.89
2022-10-19T12:41:29.555Z,49.84
2022-10-19T12:42:29.648Z,49.85
2022-10-19T12:43:29.729Z,49.85
2022-10-19T12:44:29.812Z,49.82
2022-10-19T12:45:30.017Z,49.77
2022-10-19T12:46:29.974Z,49.73
2022-10-19T12:47:30.053Z,49.68
2022-10-19T12:48:30.142Z,49.73
2022-10-19T12:49:30.273Z,49.76
2022-10-19T12:50:30.900Z,49.75
2022-10-19T12:51:30.389Z,49.70
2022-10-19T12:52:30.442Z,49.67
2022-10-19T12:53:30.576Z,49.65
2022-10-19T12:54:30.591Z,49.66
2022-10-19T12:55:30.674Z,49.63
2022-10-19T12:56:30.879Z,49.66
2022-10-19T12:57:30.840Z,49.62
2022-10-19T12:58:30.924Z,49.65
2022-10-19T12:59:31.019Z,49.67
2022-10-19T13:00:31.199Z,49.62
2022-10-19T13:01:31.223Z,49.72
2022-10-19T13:03:31.367Z,49.75
2022-10-19T13:04:32.359Z,49.82
2022-10-19T13:05:31.538Z,49.93
2022-10-19T13:06:31.594Z,49.91
2022-10-19T13:07:32.117Z,49.87
2022-10-19T13:08:31.826Z,49.70
2022-10-19T13:09:31.866Z,49.83
2022-10-19T13:10:37.875Z,49.80
2022-10-19T13:11:32.060Z,49.81
2022-10-19T13:12:32.094Z,49.80
2022-10-19T13:13:32.227Z,49.79
2022-10-19T13:14:32.273Z,49.66
2022-10-19T13:15:32.365Z,49.69
2022-10-19T13:16:32.457Z,49.73
2022-10-19T13:17:34.073Z,49.80
2022-10-19T13:18:32.746Z,49.82
2022-10-19T13:19:32.715Z,49.78
2022-10-19T13:20:33.327Z,49.75
2022-10-19T13:21:32.870Z,49.86
2022-10-19T13:22:33.264Z,49.82
2022-10-19T13:23:33.030Z,49.80
2022-10-19T13:24:33.236Z,49.90
2022-10-19T13:25:33.204Z,49.88
2022-10-19T13:26:33.285Z,49.90
2022-10-19T13:27:33.703Z,49.92
2022-10-19T13:28:33.435Z,50.01
2022-10-19T13:30:33.619Z,50.00
2022-10-19T13:31:33.723Z,49.97
2022-10-19T13:32:34.147Z,50.08
2022-10-19T13:33:33.850Z,50.10
2022-10-19T13:34:33.946Z,49.77
2022-10-19T13:35:34.147Z,50.03
2022-10-19T13:36:34.101Z,50.01
2022-10-19T13:37:34.861Z,50.13
2022-10-19T13:39:34.365Z,50.03
2022-10-19T13:40:34.500Z,50.01
2022-10-19T13:41:40.483Z,50.03
2022-10-19T13:42:35.087Z,49.95
2022-10-19T13:43:34.706Z,50.02
2022-10-19T13:44:34.815Z,49.96
2022-10-19T13:45:34.886Z,44.78
2022-10-19T13:46:35.098Z,45.18
2022-10-19T13:47:35.420Z,45.77
2022-10-19T13:48:35.169Z,45.46
2022-10-19T13:49:35.215Z,47.07
2022-10-19T13:50:35.298Z,48.01
2022-10-19T13:51:35.389Z,48.47
2022-10-19T13:52:35.939Z,48.68
2022-10-19T13:53:35.570Z,48.88
2022-10-19T13:54:35.648Z,48.90
2022-10-19T13:55:35.731Z,49.03
2022-10-19T13:57:36.286Z,48.94
2022-10-19T13:58:35.986Z,48.85
2022-10-19T13:59:36.042Z,48.84
2022-10-19T14:00:36.153Z,48.85
2022-10-19T14:01:36.279Z,48.85
2022-10-19T14:02:36.580Z,48.74
2022-10-19T14:03:36.380Z,48.84
2022-10-19T14:04:36.454Z,48.83
2022-10-19T14:06:36.629Z,49.06
2022-10-19T14:07:36.995Z,49.13
2022-10-19T14:08:36.870Z,49.02
2022-10-19T14:09:36.895Z,48.92
2022-10-19T14:10:56.227Z,49.14
2022-10-19T14:11:37.061Z,49.33
2022-10-19T14:12:43.131Z,49.47
2022-10-19T14:13:37.228Z,49.58
2022-10-19T14:14:37.321Z,49.53
2022-10-19T14:15:37.405Z,49.56
2022-10-19T14:16:37.600Z,49.74
2022-10-19T14:17:37.958Z,49.69
2022-10-19T14:18:37.658Z,49.71
2022-10-19T14:19:37.742Z,49.61
2022-10-19T14:20:37.849Z,49.53
2022-10-19T14:21:37.943Z,49.64
2022-10-19T14:22:38.169Z,49.70
2022-10-19T14:23:38.246Z,49.66
2022-10-19T14:24:38.169Z,49.58
2022-10-19T14:25:38.245Z,49.63
2022-10-19T14:26:38.318Z,49.70
2022-10-19T14:27:38.659Z,49.65
2022-10-19T14:28:38.494Z,49.77
2022-10-19T14:29:38.630Z,49.69
2022-10-19T14:30:38.619Z,49.76
2022-10-19T14:31:38.789Z,49.83
2022-10-19T14:33:38.865Z,49.85
2022-10-19T14:34:38.963Z,49.63
2022-10-19T14:35:39.015Z,49.71
2022-10-19T14:36:39.117Z,49.63
2022-10-19T14:37:39.202Z,49.73
2022-10-19T14:38:39.304Z,49.70
2022-10-19T14:39:39.342Z,49.72
2022-10-19T14:40:39.531Z,49.73
2022-10-19T14:41:39.501Z,49.82
2022-10-19T14:42:39.573Z,49.76
2022-10-19T14:43:45.624Z,49.81
2022-10-19T14:44:39.723Z,49.90
2022-10-19T14:45:39.814Z,49.83
2022-10-19T14:46:40.011Z,49.77
2022-10-19T14:47:39.983Z,49.76
2022-10-19T14:48:40.065Z,49.84
2022-10-19T14:49:40.135Z,49.74
2022-10-19T14:50:40.246Z,49.56
2022-10-19T14:51:40.310Z,49.83
2022-10-19T14:52:40.493Z,49.81
2022-10-19T14:53:40.503Z,49.65
2022-10-19T14:54:40.584Z,49.67
2022-10-19T14:55:40.674Z,49.72
2022-10-19T14:56:40.745Z,49.67
2022-10-19T14:57:40.839Z,49.62
2022-10-19T14:58:41.020Z,49.71
2022-10-19T15:00:41.065Z,49.82
2022-10-19T15:01:41.194Z,49.84
2022-10-19T15:02:41.260Z,49.76
2022-10-19T15:03:43.535Z,49.76
2022-10-19T15:04:41.416Z,49.79
2022-10-19T15:05:41.468Z,49.83
2022-10-19T15:06:41.553Z,49.80
2022-10-19T15:07:41.638Z,49.79
2022-10-19T15:08:41.858Z,49.79
2022-10-19T15:09:48.175Z,49.78
2022-10-19T15:10:41.904Z,49.82
2022-10-19T15:11:41.938Z,49.81
2022-10-19T15:12:42.027Z,49.83
2022-10-19T15:13:42.100Z,49.88
2022-10-19T15:14:48.587Z,49.77
2022-10-19T15:15:42.241Z,49.84
2022-10-19T15:16:42.311Z,49.79
2022-10-19T15:17:42.405Z,49.75
2022-10-19T15:18:49.613Z,49.84
2022-10-19T15:19:42.570Z,49.85
2022-10-19T15:20:49.409Z,49.78
2022-10-19T15:21:42.733Z,49.82
2022-10-19T15:22:42.809Z,49.83
2022-10-19T15:23:42.921Z,49.79
2022-10-19T15:24:42.969Z,49.77
2022-10-19T15:25:43.043Z,49.73
2022-10-19T15:26:43.265Z,49.75
2022-10-19T15:27:43.227Z,49.73
2022-10-19T15:28:43.319Z,49.74
2022-10-19T15:29:43.416Z,49.78
2022-10-19T15:30:43.489Z,49.77
2022-10-19T15:31:43.590Z,49.76
2022-10-19T15:32:43.646Z,49.77
2022-10-19T15:33:43.731Z,49.73
2022-10-19T15:34:43.809Z,49.74
2022-10-19T15:35:43.889Z,49.72
2022-10-19T15:36:43.977Z,49.71
2022-10-19T15:37:44.167Z,49.73
2022-10-19T15:38:44.149Z,49.74
2022-10-19T15:39:45.762Z,49.74
2022-10-19T15:40:44.293Z,49.74
2022-10-19T15:41:44.411Z,49.76
2022-10-19T15:42:44.619Z,49.72
2022-10-19T15:43:44.549Z,49.73
2022-10-19T15:44:44.631Z,49.70
2022-10-19T15:45:50.686Z,49.71
2022-10-19T15:46:44.819Z,49.76
2022-10-19T15:47:44.928Z,49.73
2022-10-19T15:48:45.000Z,49.76
2022-10-19T15:49:45.081Z,49.78
2022-10-19T15:50:45.166Z,49.78
2022-10-19T15:51:45.252Z,49.79
2022-10-19T15:52:45.338Z,49.85
2022-10-19T15:53:45.409Z,49.83
2022-10-19T15:54:45.594Z,49.84
2022-10-19T15:55:45.570Z,49.84
2022-10-19T15:56:45.656Z,49.84
2022-10-19T15:57:45.734Z,49.80
2022-10-19T15:58:45.811Z,49.80
2022-10-19T15:59:45.899Z,49.83
2022-10-19T16:00:46.087Z,49.85
2022-10-19T16:01:46.124Z,49.87
2022-10-19T16:02:46.145Z,49.86
2022-10-19T16:03:46.225Z,49.87
2022-10-19T16:04:46.289Z,49.90
2022-10-19T16:05:46.403Z,49.92
2022-10-19T16:06:46.564Z,49.91
2022-10-19T16:07:46.571Z,49.91
2022-10-19T16:08:46.669Z,49.93
2022-10-19T16:09:46.731Z,49.91
2022-10-19T16:10:46.808Z,49.92
2022-10-19T16:11:46.895Z,49.94
2022-10-19T16:12:47.086Z,49.94
2022-10-19T16:13:47.065Z,49.96
2022-10-19T16:14:47.147Z,49.95
2022-10-19T16:15:53.286Z,49.95
2022-10-19T16:18:02.089Z,49.80
2022-10-19T16:19:03.139Z,50.34
2022-10-19T16:20:03.227Z,50.22
2022-10-19T16:21:03.376Z,50.18
2022-10-19T16:22:03.369Z,50.14
2022-10-19T16:23:03.468Z,50.11
2022-10-19T16:24:03.531Z,50.09
2022-10-19T16:25:03.609Z,50.09
2022-10-19T16:26:03.684Z,50.04
2022-10-19T16:27:03.750Z,50.08
2022-10-19T16:28:03.829Z,50.07
2022-10-19T16:29:03.998Z,50.09
2022-10-19T16:30:03.981Z,50.09
2022-10-19T16:31:04.058Z,50.12
2022-10-19T16:32:04.146Z,50.10
2022-10-19T16:33:04.233Z,50.13
2022-10-19T16:34:04.319Z,50.10
2022-10-19T16:35:04.503Z,50.10
2022-10-19T16:36:04.478Z,50.10
2022-10-19T16:37:06.899Z,50.10
2022-10-19T16:38:04.612Z,50.15
2022-10-19T16:39:04.695Z,50.13
2022-10-19T16:40:04.769Z,50.15
2022-10-19T16:41:04.937Z,50.17
2022-10-19T16:42:04.946Z,50.18
2022-10-19T16:43:05.007Z,50.23
2022-10-19T16:44:05.090Z,50.21
2022-10-19T16:45:05.177Z,50.20
2022-10-19T16:46:05.257Z,50.21
2022-10-19T16:47:05.440Z,50.21
2022-10-19T16:48:05.417Z,50.23
2022-10-19T16:49:11.475Z,50.22
2022-10-19T16:50:05.578Z,50.28
2022-10-19T16:51:05.685Z,50.26
2022-10-19T16:52:06.292Z,50.24
2022-10-19T16:53:05.854Z,50.24
2022-10-19T16:54:05.923Z,50.31
2022-10-19T16:55:06.021Z,50.28
2022-10-19T16:56:06.098Z,50.29
2022-10-19T16:57:09.772Z,50.30
2022-10-19T16:58:06.371Z,50.32
2022-10-19T16:59:06.354Z,50.33
2022-10-19T17:00:06.456Z,50.32
2022-10-19T17:01:06.816Z,50.30
2022-10-19T17:02:06.609Z,50.31
2022-10-19T17:03:06.804Z,50.34
2022-10-19T17:04:06.774Z,50.34
2022-10-19T17:05:06.869Z,50.33
2022-10-19T17:06:06.953Z,50.32
2022-10-19T17:07:07.042Z,50.32
2022-10-19T17:08:07.119Z,50.37
2022-10-19T17:10:07.344Z,50.41
2022-10-19T17:11:07.377Z,50.40
2022-10-19T17:12:07.461Z,50.38
2022-10-19T17:13:07.535Z,50.37
2022-10-19T17:14:07.745Z,50.38
2022-10-19T17:16:07.821Z,50.40
2022-10-19T17:17:07.918Z,50.42
2022-10-19T17:18:08.091Z,50.42
2022-10-19T17:19:08.087Z,50.41
2022-10-19T17:20:14.300Z,50.37
2022-10-19T17:21:08.255Z,50.43
2022-10-19T17:22:08.349Z,50.42
2022-10-19T17:23:08.427Z,50.41
2022-10-19T17:24:08.511Z,50.44
2022-10-19T17:25:08.592Z,50.47
2022-10-19T17:26:08.768Z,50.47
2022-10-19T17:27:08.769Z,50.48
2022-10-19T17:28:08.847Z,50.48
2022-10-19T17:29:08.925Z,50.48
2022-10-19T17:30:09.008Z,50.50
2022-10-19T17:31:09.108Z,50.48
2022-10-19T17:32:09.215Z,50.50
2022-10-19T17:33:09.270Z,50.51
2022-10-19T17:34:09.332Z,50.53
2022-10-19T17:35:09.424Z,50.52
2022-10-19T17:36:09.498Z,50.54
2022-10-19T17:37:09.701Z,50.56
2022-10-19T17:38:09.667Z,50.59
2022-10-19T17:39:09.740Z,50.57
2022-10-19T17:40:09.839Z,50.56
2022-10-19T17:41:09.934Z,50.59
2022-10-19T17:42:10.020Z,50.61
2022-10-19T17:43:10.232Z,50.62
2022-10-19T17:44:10.180Z,50.60
2022-10-19T17:45:10.274Z,50.59
2022-10-19T17:46:10.328Z,50.62
2022-10-19T17:47:10.402Z,50.65
2022-10-19T17:48:10.603Z,50.62
2022-10-19T17:49:10.566Z,50.63
2022-10-19T17:50:10.645Z,50.70
2022-10-19T17:51:16.720Z,50.68
2022-10-19T17:52:10.841Z,50.73
2022-10-19T17:53:10.946Z,50.74
2022-10-19T17:54:11.056Z,50.73
2022-10-19T17:55:12.465Z,50.76
2022-10-19T17:56:11.172Z,50.77
2022-10-19T17:57:11.249Z,50.77
2022-10-19T17:58:11.327Z,50.77
2022-10-19T17:59:11.409Z,50.79
2022-10-19T18:00:11.621Z,50.78
2022-10-19T18:01:11.599Z,50.80
2022-10-19T18:02:11.683Z,50.80
2022-10-19T18:03:12.691Z,50.78
2022-10-19T18:04:11.854Z,50.76
2022-10-19T18:05:11.958Z,50.80
2022-10-19T18:06:12.118Z,50.82
2022-10-19T18:07:12.093Z,50.82
2022-10-19T18:08:12.183Z,50.86
2022-10-19T18:09:12.295Z,50.87
2022-10-19T18:10:12.364Z,50.87
2022-10-19T18:11:12.549Z,50.87
2022-10-19T18:12:12.550Z,50.90
2022-10-19T18:13:12.634Z,50.92
2022-10-19T18:14:12.728Z,50.91
2022-10-19T18:15:12.787Z,50.90
2022-10-19T18:16:12.874Z,50.93
2022-10-19T18:17:12.981Z,50.91
2022-10-19T18:18:13.033Z,50.94
2022-10-19T18:19:13.124Z,50.95
2022-10-19T18:20:13.210Z,50.93
2022-10-19T18:21:13.275Z,50.96
2022-10-19T18:22:19.835Z,50.96
2022-10-19T18:23:13.426Z,51.00
2022-10-19T18:24:15.344Z,51.00
2022-10-19T18:25:16.246Z,50.99
2022-10-19T18:26:13.669Z,51.04
2022-10-19T18:27:13.758Z,51.04
2022-10-19T18:28:13.945Z,51.04
2022-10-19T18:29:13.905Z,51.04
2022-10-19T18:30:13.982Z,51.05
2022-10-19T18:31:14.064Z,51.07
2022-10-19T18:32:14.141Z,51.07
2022-10-19T18:33:14.229Z,51.06
2022-10-19T18:34:15.142Z,51.05
2022-10-19T18:35:14.390Z,51.06
2022-10-19T18:36:14.463Z,51.08
2022-10-19T18:37:14.551Z,51.09
2022-10-19T18:38:14.635Z,51.10
2022-10-19T18:39:14.823Z,51.08
2022-10-19T18:40:14.795Z,51.09
2022-10-19T18:41:15.017Z,51.08
2022-10-19T18:42:14.958Z,51.10
2022-10-19T18:43:15.049Z,51.11
2022-10-19T18:44:15.141Z,51.10
2022-10-19T18:45:15.353Z,51.11
2022-10-19T18:46:15.332Z,51.11
2022-10-19T18:47:15.406Z,51.12
2022-10-19T18:48:15.490Z,51.13
2022-10-19T18:49:15.577Z,51.12
2022-10-19T18:51:15.738Z,51.13
2022-10-19T18:52:15.820Z,51.17
2022-10-19T18:53:21.877Z,51.16
2022-10-19T18:54:15.971Z,51.17
2022-10-19T18:55:16.049Z,51.18
2022-10-19T18:56:16.242Z,51.20
2022-10-19T18:57:16.208Z,51.20
2022-10-19T18:58:16.310Z,51.20
2022-10-19T18:59:16.416Z,51.22
2022-10-19T19:00:16.440Z,51.21
2022-10-19T19:01:16.650Z,51.20
2022-10-19T19:02:22.371Z,51.19
2022-10-19T19:03:16.697Z,51.23
2022-10-19T19:04:16.795Z,51.24
2022-10-19T19:05:16.845Z,51.25
2022-10-19T19:06:16.927Z,51.24
2022-10-19T19:07:17.035Z,51.27
2022-10-19T19:08:17.085Z,51.29
2022-10-19T19:09:17.163Z,51.27
2022-10-19T19:10:17.249Z,51.26
2022-10-19T19:11:17.363Z,51.27
2022-10-19T19:12:17.409Z,51.25
2022-10-19T19:13:17.598Z,51.27
2022-10-19T19:14:17.592Z,51.26
2022-10-19T19:15:17.673Z,51.26
2022-10-19T19:16:17.755Z,51.32
2022-10-19T19:17:17.832Z,51.33
2022-10-19T19:19:18.135Z,51.31
2022-10-19T19:20:18.106Z,51.31
2022-10-19T19:21:18.193Z,51.34
2022-10-19T19:22:18.264Z,51.31
2022-10-19T19:23:18.376Z,51.31
2022-10-19T19:24:24.791Z,51.32
2022-10-19T19:25:18.496Z,51.37
2022-10-19T19:26:18.582Z,51.37
2022-10-19T19:27:18.690Z,51.35
2022-10-19T19:28:18.755Z,51.38
2022-10-19T19:29:18.840Z,51.39
2022-10-19T19:30:19.028Z,51.37
2022-10-19T19:31:18.998Z,51.40
2022-10-19T19:32:19.089Z,51.40
2022-10-19T19:33:19.166Z,51.44
2022-10-19T19:34:19.242Z,51.42
2022-10-19T19:35:19.327Z,51.43
2022-10-19T19:36:19.447Z,51.42
2022-10-19T19:37:19.498Z,51.42
2022-10-19T19:38:19.586Z,51.39
2022-10-19T19:39:19.677Z,51.41